Time;durP1;ratioP1;P1;durP2;ratioP2;P2;SDS_P1;SDS_P2;PMS_P1;PMS_P2;Temp;Humidity;BMP_temperature;BMP_pressure;BME280_temperature;BME280_humidity;BME280_pressure;Samples;Min_cycle;Max_cycle;Signal;HPM_P1;HPM_P2
2022/05/26 00:01:00;;;;;;;8.10;6.50;;;;;;;15.23;70.04;100935.91;5037108;28;20188;-65
2022/05/26 00:03:25;;;;;;;7.07;6.30;;;;;;;15.32;69.20;100938.47;5037745;28;20568;-65
2022/05/26 00:05:51;;;;;;;8.10;7.20;;;;;;;15.53;68.71;100933.94;5038246;28;20429;-65
2022/05/26 00:08:16;;;;;;;7.30;6.60;;;;;;;14.98;70.26;100930.81;5037681;28;20486;-65
2022/05/26 00:10:42;;;;;;;7.47;6.77;;;;;;;15.13;69.81;100932.47;5037816;28;20399;-65
2022/05/26 00:13:07;;;;;;;8.80;7.60;;;;;;;15.01;70.28;100935.19;5038289;28;20252;-65
2022/05/26 00:15:32;;;;;;;7.47;6.70;;;;;;;15.43;69.32;100932.28;5037754;28;20244;-65
2022/05/26 00:17:58;;;;;;;10.13;7.17;;;;;;;15.38;69.51;100939.31;5037502;28;20468;-65
2022/05/26 00:20:23;;;;;;;8.90;8.10;;;;;;;14.92;70.80;100941.31;5038263;28;20208;-65
2022/05/26 00:22:49;;;;;;;9.30;6.73;;;;;;;14.99;70.74;100926.41;5037382;28;20502;-65
2022/05/26 00:25:14;;;;;;;7.43;6.73;;;;;;;15.30;69.81;100926.22;5037714;28;20178;-67
2022/05/26 00:27:39;;;;;;;7.47;6.80;;;;;;;15.28;69.69;100930.63;5037944;28;20255;-64
2022/05/26 00:30:06;;;;;;;7.53;6.93;;;;;;;15.16;70.20;100934.22;5037657;28;20220;-64
2022/05/26 00:32:32;;;;;;;8.00;7.30;;;;;;;15.39;69.54;100920.91;5037598;28;20264;-65
2022/05/26 00:34:57;;;;;;;8.00;7.07;;;;;;;15.12;70.38;100922.84;5038303;28;20471;-64
2022/05/26 00:37:22;;;;;;;9.70;8.37;;;;;;;15.41;69.49;100920.91;5037446;28;20227;-64
2022/05/26 00:39:47;;;;;;;9.13;8.30;;;;;;;15.23;70.02;100927.16;5037815;28;20443;-65
2022/05/26 00:42:13;;;;;;;9.20;8.47;;;;;;;15.33;69.98;100934.97;5037667;28;20194;-65
2022/05/26 00:44:39;;;;;;;10.20;8.33;;;;;;;15.25;70.00;100930.63;5037556;28;20170;-65
2022/05/26 00:47:15;;;;;;;9.50;8.13;;;;;;;15.07;70.52;100931.63;5037527;28;20552;-65
2022/05/26 00:49:55;;;;;;;9.40;8.53;;;;;;;15.60;69.49;100930.41;5037502;28;20192;-65
2022/05/26 00:52:23;;;;;;;10.10;9.20;;;;;;;15.21;70.24;100928.91;5037384;28;20384;-65
2022/05/26 00:54:51;;;;;;;10.50;9.50;;;;;;;15.70;69.22;100931.19;5038190;28;20798;-64
2022/05/26 00:57:23;;;;;;;12.50;9.10;;;;;;;15.78;68.82;100933.75;5041278;28;20399;-66
2022/05/26 00:59:56;;;;;;;9.93;9.07;;;;;;;15.56;69.33;100930.41;5040426;28;20478;-65
2022/05/26 01:02:25;;;;;;;9.60;8.80;;;;;;;15.40;69.50;100927.91;5041010;28;20460;-64
2022/05/26 01:04:53;;;;;;;10.60;9.67;;;;;;;15.27;70.23;100935.00;5040583;28;20400;-65
2022/05/26 01:07:21;;;;;;;9.50;8.67;;;;;;;15.61;69.24;100929.53;5040449;28;20410;-65
2022/05/26 01:09:47;;;;;;;9.23;8.33;;;;;;;15.31;70.10;100941.97;5041429;28;20672;-65
2022/05/26 01:12:12;;;;;;;9.20;8.33;;;;;;;15.53;69.73;100928.69;5040847;28;20391;-65
2022/05/26 01:14:42;;;;;;;9.00;8.20;;;;;;;15.45;70.02;100926.13;5040957;28;20177;-65
2022/05/26 01:17:52;;;;;;;12.33;8.30;;;;;;;15.61;69.47;100926.91;5040825;28;20236;-65
2022/05/26 01:20:30;;;;;;;9.67;8.23;;;;;;;15.48;69.50;100931.38;5040461;28;20404;-65
2022/05/26 01:23:08;;;;;;;10.30;8.23;;;;;;;15.39;70.31;100934.06;5040832;28;20419;-65
2022/05/26 01:25:58;;;;;;;9.67;8.80;;;;;;;15.69;69.34;100933.84;5040822;28;20466;-65
2022/05/26 01:28:57;;;;;;;10.53;9.47;;;;;;;15.35;71.81;100937.59;5040626;28;20444;-64
2022/05/26 01:31:34;;;;;;;9.37;8.47;;;;;;;15.64;70.29;100926.88;5039974;28;20392;-65
2022/05/26 01:34:14;;;;;;;11.10;8.60;;;;;;;15.23;71.39;100933.28;5040566;28;20416;-65
2022/05/26 01:36:54;;;;;;;9.03;8.13;;;;;;;15.37;71.01;100940.19;5040873;28;20491;-65
2022/05/26 01:39:44;;;;;;;10.00;9.10;;;;;;;15.45;71.16;100939.28;5040623;28;20394;-65
2022/05/26 01:42:38;;;;;;;9.50;8.57;;;;;;;15.19;71.64;100938.56;5039489;28;20464;-65
2022/05/26 01:45:42;;;;;;;10.23;9.20;;;;;;;15.18;71.78;100937.72;5039859;28;20383;-65
2022/05/26 01:48:25;;;;;;;12.50;8.83;;;;;;;15.75;70.12;100936.38;5039570;28;20387;-64
2022/05/26 01:50:56;;;;;;;9.50;8.67;;;;;;;15.61;70.28;100931.25;5040557;28;20372;-65
2022/05/26 01:53:41;;;;;;;9.97;8.97;;;;;;;15.46;71.18;100942.75;5039432;28;20448;-65
2022/05/26 01:56:26;;;;;;;9.33;8.03;;;;;;;15.36;71.86;100936.72;5040336;28;20784;-65
2022/05/26 01:58:58;;;;;;;9.73;8.77;;;;;;;15.44;71.67;100940.16;5040168;28;20405;-65
2022/05/26 02:01:27;;;;;;;9.47;8.57;;;;;;;15.40;71.20;100938.44;5055927;28;20417;-65
2022/05/26 02:03:53;;;;;;;10.30;9.30;;;;;;;15.56;70.98;100938.31;5022582;28;20396;-65
2022/05/26 02:06:30;;;;;;;10.30;9.20;;;;;;;15.56;71.18;100940.94;5039761;28;20437;-65
2022/05/26 02:08:59;;;;;;;11.03;9.53;;;;;;;15.45;71.66;100936.66;5039737;28;20216;-65
2022/05/26 02:11:25;;;;;;;10.97;10.00;;;;;;;15.08;72.62;100942.13;5039124;28;20444;-65
2022/05/26 02:14:11;;;;;;;9.70;8.70;;;;;;;15.68;71.26;100938.19;5039437;28;20401;-65
2022/05/26 02:17:10;;;;;;;11.50;9.87;;;;;;;15.58;71.35;100936.56;5039892;28;20567;-64
2022/05/26 02:19:43;;;;;;;12.87;10.43;;;;;;;15.47;72.06;100942.75;5039153;28;20621;-65
2022/05/26 02:22:23;;;;;;;11.33;10.07;;;;;;;15.47;72.25;100939.25;5038704;28;20526;-65
2022/05/26 02:24:53;;;;;;;11.57;10.47;;;;;;;15.70;71.79;100941.69;5039070;28;20395;-64
2022/05/26 02:27:18;;;;;;;12.83;10.57;;;;;;;15.35;71.99;100939.34;5039487;28;20417;-65
2022/05/26 02:29:53;;;;;;;11.73;10.60;;;;;;;15.48;71.99;100931.38;5039542;28;20391;-66
2022/05/26 02:32:22;;;;;;;10.93;9.37;;;;;;;15.54;71.82;100933.06;5039314;28;20472;-64
2022/05/26 02:34:49;;;;;;;12.27;10.23;;;;;;;15.75;71.40;100929.41;5038843;28;20437;-64
2022/05/26 02:37:14;;;;;;;10.70;9.50;;;;;;;15.83;71.38;100932.00;5039133;28;20394;-65
2022/05/26 02:39:40;;;;;;;13.70;9.90;;;;;;;15.22;72.49;100928.03;5039349;28;20405;-65
2022/05/26 02:42:05;;;;;;;10.77;9.60;;;;;;;15.63;71.86;100933.00;5038562;28;20272;-64
2022/05/26 02:44:32;;;;;;;12.70;10.30;;;;;;;15.66;71.21;100943.47;5039062;28;20174;-65
2022/05/26 02:47:04;;;;;;;12.27;10.40;;;;;;;15.20;72.55;100945.59;5038460;28;20249;-65
2022/05/26 02:49:36;;;;;;;10.47;9.47;;;;;;;15.38;72.25;100944.56;5039188;28;20417;-65
2022/05/26 02:52:11;;;;;;;11.50;10.47;;;;;;;15.33;72.71;100942.00;5039109;28;20388;-65
2022/05/26 02:55:03;;;;;;;12.37;11.07;;;;;;;15.31;72.86;100947.22;5038927;28;20785;-64
2022/05/26 02:57:37;;;;;;;14.03;10.47;;;;;;;15.87;70.94;100936.34;5038954;28;20402;-64
2022/05/26 03:00:06;;;;;;;12.40;10.50;;;;;;;15.56;71.61;100944.44;5038909;28;20453;-65
2022/05/26 03:02:50;;;;;;;10.60;8.93;;;;;;;14.99;73.09;100942.16;5037987;28;20486;-65
2022/05/26 03:05:34;;;;;;;12.20;9.60;;;;;;;15.49;72.83;100943.63;5038165;28;20698;-65
2022/05/26 03:08:01;;;;;;;12.80;11.00;;;;;;;15.86;71.50;100957.34;5038861;28;20787;-65
2022/05/26 03:10:29;;;;;;;13.93;10.30;;;;;;;15.35;72.24;100950.72;5038044;28;20522;-65
2022/05/26 03:12:56;;;;;;;11.17;10.10;;;;;;;15.37;72.88;100961.22;5037707;28;20413;-65
2022/05/26 03:15:21;;;;;;;12.87;10.13;;;;;;;15.36;73.10;100967.34;5038533;28;20431;-64
2022/05/26 03:17:47;;;;;;;15.30;10.50;;;;;;;15.72;71.90;100950.47;5037875;28;20440;-65
2022/05/26 03:20:13;;;;;;;13.97;9.70;;;;;;;15.48;72.28;100962.03;5038748;28;20304;-64
2022/05/26 03:22:38;;;;;;;15.00;10.47;;;;;;;15.81;71.56;100965.31;5038714;28;20469;-64
2022/05/26 03:25:04;;;;;;;11.80;10.07;;;;;;;15.41;72.76;100969.09;5038591;28;20204;-65
2022/05/26 03:27:30;;;;;;;11.43;9.90;;;;;;;15.77;71.32;100961.78;5038341;28;20213;-65
2022/05/26 03:29:55;;;;;;;12.10;9.90;;;;;;;15.53;72.39;100964.59;5038864;28;20414;-64
2022/05/26 03:32:21;;;;;;;12.87;10.30;;;;;;;15.58;71.81;100957.56;5038305;28;20185;-65
2022/05/26 03:42:58;;;;;;;12.23;10.23;;;;;;;15.21;73.45;100968.31;5038312;28;20475;-65
2022/05/26 03:45:24;;;;;;;12.40;10.67;;;;;;;15.36;73.28;100972.59;5037731;28;20840;-65
2022/05/26 03:47:50;;;;;;;14.27;9.90;;;;;;;15.73;72.25;100972.34;5038139;28;20170;-65
2022/05/26 03:50:16;;;;;;;11.27;10.10;;;;;;;15.24;73.23;100968.31;5038163;28;20483;-65
2022/05/26 03:52:41;;;;;;;11.30;10.10;;;;;;;15.61;72.38;100968.06;5038392;28;20261;-65
2022/05/26 03:55:07;;;;;;;10.93;9.67;;;;;;;15.69;71.78;100968.84;5038101;28;20185;-65
2022/05/26 03:57:32;;;;;;;12.40;11.10;;;;;;;16.08;70.83;100969.44;5038377;28;20178;-65
2022/05/26 03:59:58;;;;;;;11.77;9.43;;;;;;;15.79;71.27;100975.81;5038978;28;20414;-65
2022/05/26 04:02:24;;;;;;;11.50;9.30;;;;;;;15.44;72.21;100982.19;5037740;28;20293;-65
2022/05/26 04:04:50;;;;;;;11.30;9.63;;;;;;;15.46;72.84;100980.41;5038011;28;20417;-65
2022/05/26 04:07:16;;;;;;;11.53;10.40;;;;;;;15.39;72.99;100986.59;5038498;28;20686;-65
2022/05/26 04:09:41;;;;;;;10.80;9.70;;;;;;;15.74;72.47;100990.72;5037946;28;20174;-65
2022/05/26 04:12:08;;;;;;;11.17;9.73;;;;;;;15.79;71.73;100988.94;5037654;28;20186;-65
2022/05/26 04:14:33;;;;;;;11.00;9.97;;;;;;;15.66;72.41;100984.66;5038417;28;20449;-64
2022/05/26 04:16:59;;;;;;;11.03;9.40;;;;;;;15.81;71.81;100987.19;5037791;28;20461;-64
2022/05/26 04:19:24;;;;;;;10.50;9.40;;;;;;;15.91;70.70;100981.84;5037956;28;20171;-64
2022/05/26 04:24:33;;;;;;;11.33;9.57;;;;;;;15.89;70.57;100987.13;5037702;28;20602;-65
2022/05/26 04:26:58;;;;;;;10.43;9.23;;;;;;;16.11;70.27;100994.84;5037687;28;20395;-64
2022/05/26 04:29:24;;;;;;;12.30;10.87;;;;;;;16.14;69.89;100985.16;5038428;28;20197;-65
2022/05/26 04:31:50;;;;;;;12.73;9.60;;;;;;;16.00;71.07;100989.66;5042098;28;20170;-65
2022/05/26 04:34:16;;;;;;;11.03;9.67;;;;;;;15.49;71.83;100990.03;5042233;28;20171;-65
2022/05/26 04:36:41;;;;;;;11.20;9.37;;;;;;;15.80;71.35;100995.09;5041688;28;20443;-64
2022/05/26 04:39:07;;;;;;;9.50;8.23;;;;;;;15.91;70.73;100997.63;5041653;28;20328;-65
2022/05/26 04:41:32;;;;;;;10.60;9.50;;;;;;;16.50;68.71;100988.28;5042192;28;20177;-65
2022/05/26 04:43:57;;;;;;;11.67;9.30;;;;;;;16.70;68.13;100988.94;5041454;28;20209;-65
2022/05/26 04:46:23;;;;;;;10.23;7.93;;;;;;;16.17;69.00;101000.91;5041429;28;20177;-65
2022/05/26 04:48:48;;;;;;;9.50;8.60;;;;;;;16.05;69.55;101010.66;5042044;28;20162;-65
2022/05/26 04:51:13;;;;;;;9.57;8.20;;;;;;;17.22;66.19;101003.28;5041503;28;20206;-65
2022/05/26 04:53:38;;;;;;;8.10;7.30;;;;;;;16.84;66.84;101009.00;5041260;28;20224;-65
2022/05/26 04:56:04;;;;;;;8.93;7.63;;;;;;;16.48;67.05;101013.78;5041638;28;20170;-65
2022/05/26 04:58:29;;;;;;;10.83;8.23;;;;;;;16.97;65.79;101014.13;5041332;28;20548;-65
2022/05/26 05:00:55;;;;;;;12.03;7.70;;;;;;;17.27;64.47;101020.75;5041392;28;20166;-66
2022/05/26 05:03:20;;;;;;;9.60;8.00;;;;;;;17.01;64.65;101021.09;5041391;28;20572;-65
2022/05/26 05:05:45;;;;;;;11.43;7.30;;;;;;;17.67;63.06;101022.81;5041276;28;20177;-65
2022/05/26 05:08:11;;;;;;;10.40;6.70;;;;;;;17.23;63.54;101026.09;5041107;28;20178;-65
2022/05/26 05:10:36;;;;;;;10.80;7.03;;;;;;;16.94;64.25;101024.69;5041408;28;20247;-65
2022/05/26 05:13:02;;;;;;;10.37;7.40;;;;;;;17.17;63.80;101030.56;5040861;28;20429;-65
2022/05/26 05:15:52;;;;;;;11.37;7.10;;;;;;;16.38;65.11;101037.56;5040315;28;20174;-65
2022/05/26 05:18:17;;;;;;;10.57;7.60;;;;;;;16.54;65.42;101039.16;5040849;28;20536;-64
2022/05/26 05:20:43;;;;;;;8.73;6.83;;;;;;;17.29;63.51;101041.81;5041020;28;20416;-65
2022/05/26 05:23:11;;;;;;;10.90;7.50;;;;;;;16.86;63.87;101035.28;5041041;28;20194;-65
2022/05/26 05:25:40;;;;;;;10.63;6.93;;;;;;;17.67;61.07;101038.63;5040144;28;20170;-64
2022/05/26 05:28:17;;;;;;;7.27;6.47;;;;;;;17.57;61.57;101038.78;5040615;28;20436;-64
2022/05/26 05:30:55;;;;;;;9.27;6.33;;;;;;;18.68;58.08;101039.59;5040872;28;20699;-65
2022/05/26 05:33:24;;;;;;;10.07;7.10;;;;;;;18.67;56.56;101041.38;5040699;28;20814;-65
2022/05/26 05:35:53;;;;;;;6.70;5.30;;;;;;;20.00;53.49;101029.72;5039875;28;20417;-65
2022/05/26 05:38:19;;;;;;;7.57;4.77;;;;;;;21.14;50.45;101021.31;5039769;28;20425;-65
2022/05/26 05:40:45;;;;;;;9.60;5.73;;;;;;;20.52;51.75;101024.81;5039779;28;20405;-66
2022/05/26 05:43:10;;;;;;;7.60;5.00;;;;;;;21.67;48.52;101031.19;5039545;28;20470;-66
2022/05/26 05:45:37;;;;;;;6.50;4.90;;;;;;;20.19;50.45;101030.13;5040452;28;20181;-65
2022/05/26 05:48:03;;;;;;;9.77;5.20;;;;;;;22.47;46.52;101022.34;5040049;28;20220;-65
2022/05/26 05:50:28;;;;;;;7.23;4.57;;;;;;;22.68;45.44;101035.81;5040441;28;20697;-66
2022/05/26 05:52:53;;;;;;;6.77;4.70;;;;;;;22.15;46.23;101032.31;5040370;28;20273;-65
2022/05/26 05:55:18;;;;;;;11.10;5.33;;;;;;;20.24;50.19;101043.22;5040957;28;20538;-65
2022/05/26 05:57:44;;;;;;;7.70;4.70;;;;;;;21.07;49.29;101046.28;5040220;28;20166;-65
2022/05/26 06:00:09;;;;;;;8.13;4.97;;;;;;;21.97;46.53;101043.53;5040219;28;20540;-65
2022/05/26 06:02:35;;;;;;;8.57;4.73;;;;;;;20.39;49.59;101056.09;5040436;28;20190;-65
2022/05/26 06:05:00;;;;;;;7.10;4.77;;;;;;;20.03;49.59;101056.09;5040172;28;20173;-65
2022/05/26 06:07:26;;;;;;;6.40;4.80;;;;;;;22.47;44.63;101048.94;5040139;28;20257;-66
2022/05/26 06:09:51;;;;;;;10.23;4.93;;;;;;;22.40;44.72;101042.09;5040580;28;20198;-65
2022/05/26 06:12:17;;;;;;;8.20;4.20;;;;;;;23.31;43.14;101035.25;5039917;28;20171;-65
2022/05/26 06:14:43;;;;;;;9.53;4.27;;;;;;;24.06;40.79;101047.38;5039869;28;20410;-65
2022/05/26 06:17:09;;;;;;;6.53;4.07;;;;;;;23.12;42.11;101056.34;5039794;28;20210;-65
2022/05/26 06:19:36;;;;;;;9.13;4.80;;;;;;;21.20;45.82;101063.56;5039900;28;20177;-65
2022/05/26 06:22:07;;;;;;;5.90;4.20;;;;;;;23.09;42.71;101059.13;5039820;28;20445;-65
2022/05/26 06:24:33;;;;;;;7.70;4.23;;;;;;;22.59;43.03;101074.19;5039932;28;20635;-65
2022/05/26 06:26:58;;;;;;;18.23;4.33;;;;;;;22.63;43.21;101085.59;5039658;28;20424;-65
2022/05/26 06:37:37;;;;;;;6.80;3.50;;;;;;;23.82;39.56;101091.81;5039496;28;20416;-65
2022/05/26 06:40:03;;;;;;;6.73;3.73;;;;;;;22.50;42.15;101099.31;5039575;28;20421;-65
2022/05/26 06:42:29;;;;;;;8.27;3.97;;;;;;;22.18;42.87;101098.56;5039026;28;20479;-65
2022/05/26 06:44:55;;;;;;;4.70;3.27;;;;;;;21.03;43.54;101097.66;5039236;28;20175;-65
2022/05/26 06:47:21;;;;;;;7.33;3.47;;;;;;;20.14;45.98;101104.34;5039690;28;20406;-65
2022/05/26 06:49:47;;;;;;;6.00;3.87;;;;;;;20.98;45.46;101095.13;5038538;28;20547;-66
2022/05/26 06:52:14;;;;;;;7.37;4.40;;;;;;;20.86;46.09;101096.34;5038178;28;20455;-64
2022/05/26 06:54:43;;;;;;;5.17;3.67;;;;;;;21.12;45.04;101101.81;5039718;28;20406;-65
2022/05/26 06:57:09;;;;;;;5.77;3.90;;;;;;;20.47;45.66;101101.78;5038975;28;20445;-66
2022/05/26 06:59:36;;;;;;;7.83;3.97;;;;;;;20.35;45.89;101102.94;5039035;28;20420;-65
2022/05/26 07:02:03;;;;;;;5.20;3.97;;;;;;;20.46;46.44;101112.41;5039283;28;20526;-65
2022/05/26 07:04:29;;;;;;;6.67;3.83;;;;;;;21.91;42.45;101103.00;5038867;28;20512;-65
2022/05/26 07:06:55;;;;;;;4.90;3.50;;;;;;;23.00;37.94;101109.06;5038901;28;20408;-65
2022/05/26 07:09:21;;;;;;;6.00;3.53;;;;;;;23.87;36.59;101103.16;5039425;28;20779;-66
2022/05/26 07:11:47;;;;;;;6.10;4.53;;;;;;;25.16;33.93;101107.44;5038841;28;20178;-65
2022/05/26 07:14:13;;;;;;;5.00;3.03;;;;;;;24.29;34.17;101114.78;5038749;28;20407;-65
2022/05/26 07:16:39;;;;;;;6.27;3.40;;;;;;;22.82;37.74;101120.38;5038886;28;20551;-65
2022/05/26 07:19:04;;;;;;;4.97;3.13;;;;;;;22.13;39.73;101127.06;5038629;28;20448;-66
2022/05/26 07:21:30;;;;;;;5.57;3.57;;;;;;;21.78;40.53;101134.34;5038892;28;20228;-65
2022/05/26 07:23:55;;;;;;;7.17;3.30;;;;;;;22.80;38.50;101124.84;5038418;28;20259;-65
2022/05/26 07:26:21;;;;;;;6.23;3.90;;;;;;;23.82;35.73;101129.94;5038617;28;20174;-65
2022/05/26 07:28:46;;;;;;;5.27;3.03;;;;;;;22.75;37.73;101134.81;5038967;28;20224;-64
2022/05/26 07:31:13;;;;;;;6.73;3.47;;;;;;;22.51;38.41;101140.03;5038538;28;20582;-65
2022/05/26 07:33:38;;;;;;;4.37;3.20;;;;;;;23.62;35.09;101144.03;5038211;28;20181;-67
2022/05/26 07:36:04;;;;;;;4.37;2.80;;;;;;;23.01;34.49;101147.16;5038711;28;20802;-66
2022/05/26 07:41:23;;;;;;;5.10;3.10;;;;;;;23.94;33.32;101143.75;5038564;28;20455;-66
2022/05/26 07:43:52;;;;;;;5.40;3.20;;;;;;;25.72;31.24;101136.94;5037525;28;20456;-66
2022/05/26 07:46:19;;;;;;;4.20;2.90;;;;;;;23.51;34.35;101151.56;5038361;28;20731;-65
2022/05/26 07:48:44;;;;;;;7.60;3.37;;;;;;;22.18;37.41;101159.66;5037562;28;20642;-65
2022/05/26 07:51:09;;;;;;;5.30;3.43;;;;;;;22.04;37.27;101161.88;5037691;28;20451;-65
2022/05/26 07:53:35;;;;;;;6.50;2.83;;;;;;;22.06;37.15;101154.75;5038582;28;20242;-65
2022/05/26 07:56:02;;;;;;;3.10;2.60;;;;;;;23.30;34.75;101155.88;5038217;28;20603;-65
2022/05/26 07:58:27;;;;;;;3.90;3.10;;;;;;;23.38;34.22;101164.44;5038087;28;20166;-65
2022/05/26 08:00:54;;;;;;;5.40;2.90;;;;;;;21.26;37.40;101168.59;5038564;28;20405;-66
2022/05/26 08:03:20;;;;;;;3.30;2.40;;;;;;;21.68;36.90;101170.94;5037522;28;20213;-65
2022/05/26 08:05:45;;;;;;;4.20;3.07;;;;;;;23.30;34.66;101170.06;5038026;28;20421;-67
2022/05/26 08:08:10;;;;;;;2.63;2.43;;;;;;;24.06;33.36;101185.88;5038450;28;20256;-65
2022/05/26 08:10:37;;;;;;;3.87;2.90;;;;;;;22.27;34.90;101190.38;5037946;28;20170;-66
2022/05/26 08:13:02;;;;;;;4.17;2.90;;;;;;;22.64;35.00;101183.00;5037911;28;20170;-65
2022/05/26 08:15:28;;;;;;;5.37;2.73;;;;;;;23.70;32.25;101183.66;5037787;28;20499;-65
2022/05/26 08:17:53;;;;;;;3.93;2.97;;;;;;;22.17;34.61;101188.91;5037717;28;20611;-65
2022/05/26 08:20:18;;;;;;;3.77;2.80;;;;;;;22.68;34.52;101185.50;5037876;28;20176;-65
2022/05/26 08:22:43;;;;;;;7.10;3.03;;;;;;;24.32;31.55;101183.94;5038432;28;20202;-67
2022/05/26 08:25:10;;;;;;;3.70;2.47;;;;;;;24.59;30.71;101181.06;5037783;28;20203;-67
2022/05/26 08:27:35;;;;;;;3.37;2.90;;;;;;;24.47;31.50;101193.09;5037654;28;20197;-66
2022/05/26 08:30:01;;;;;;;3.07;2.77;;;;;;;23.49;31.78;101196.88;5038331;28;20401;-65
2022/05/26 08:32:26;;;;;;;4.70;2.60;;;;;;;23.35;32.36;101201.81;5037513;28;20167;-65
2022/05/26 08:34:59;;;;;;;4.63;2.50;;;;;;;21.85;33.95;101204.03;5037597;28;20424;-66
2022/05/26 08:37:24;;;;;;;3.40;2.40;;;;;;;23.12;33.01;101216.78;5037522;28;20166;-66
2022/05/26 08:39:50;;;;;;;6.47;3.20;;;;;;;22.46;32.98;101211.94;5037650;28;20432;-65
2022/05/26 08:42:19;;;;;;;3.27;2.70;;;;;;;22.14;33.47;101213.78;5037480;28;20206;-65
2022/05/26 08:44:44;;;;;;;6.17;2.90;;;;;;;20.93;35.15;101220.72;5037991;28;20216;-66
2022/05/26 08:47:20;;;;;;;4.27;2.63;;;;;;;22.09;33.77;101220.16;5036529;28;20420;-65
2022/05/26 08:49:50;;;;;;;4.30;2.70;;;;;;;21.65;33.62;101216.13;5036715;28;20433;-65
2022/05/26 08:52:19;;;;;;;3.80;2.73;;;;;;;20.88;34.67;101236.75;5037402;28;20725;-65
2022/05/26 08:55:03;;;;;;;3.03;2.50;;;;;;;22.29;33.04;101220.41;5036782;28;20418;-65
2022/05/26 08:57:44;;;;;;;3.30;2.27;;;;;;;22.81;30.95;101238.25;5037724;28;20499;-65
2022/05/26 09:00:17;;;;;;;3.63;2.67;;;;;;;24.13;29.99;101237.97;5020533;28;20425;-65
2022/05/26 09:02:43;;;;;;;4.00;2.27;;;;;;;23.45;31.18;101237.81;5037403;28;20567;-66
2022/05/26 09:05:15;;;;;;;3.10;2.63;;;;;;;24.65;30.52;101224.38;5037528;28;20498;-65
2022/05/26 09:13:27;;;;;;;6.57;3.90;;;;;;;21.20;35.01;101249.19;5036621;28;20420;-65
2022/05/26 09:15:52;;;;;;;4.80;2.70;;;;;;;22.82;32.66;101251.47;5038798;28;20689;-66
2022/05/26 09:18:20;;;;;;;4.30;2.60;;;;;;;24.29;30.20;101242.66;5041013;28;20428;-66
2022/05/26 09:20:48;;;;;;;3.10;2.80;;;;;;;23.55;31.28;101252.50;5041056;28;20170;-66
2022/05/26 09:23:27;;;;;;;4.47;2.47;;;;;;;23.73;31.00;101262.56;5041407;28;20483;-65
2022/05/26 09:26:03;;;;;;;3.50;2.47;;;;;;;23.81;30.50;101258.66;5041119;28;20515;-66
2022/05/26 09:28:38;;;;;;;3.40;2.50;;;;;;;23.03;31.22;101259.69;5040066;28;20761;-66
2022/05/26 09:31:22;;;;;;;2.83;2.63;;;;;;;23.54;30.71;101266.78;5040945;28;20409;-66
2022/05/26 09:34:01;;;;;;;3.90;2.50;;;;;;;25.16;29.01;101264.00;5040821;28;20409;-65
2022/05/26 09:36:29;;;;;;;3.00;2.27;;;;;;;24.64;29.34;101259.06;5040743;28;20488;-66
2022/05/26 09:38:54;;;;;;;3.80;2.40;;;;;;;24.53;30.14;101267.47;5040671;28;20513;-66
2022/05/26 09:41:19;;;;;;;4.97;2.80;;;;;;;25.10;29.71;101266.94;5040642;28;20429;-65
2022/05/26 09:44:03;;;;;;;3.77;2.80;;;;;;;24.76;30.33;101263.03;5040490;28;20625;-65
2022/05/26 09:46:28;;;;;;;3.77;2.60;;;;;;;25.65;28.87;101267.19;5040599;28;20249;-65
2022/05/26 09:48:59;;;;;;;2.93;2.30;;;;;;;25.66;29.08;101276.94;5040483;28;20520;-66
2022/05/26 09:51:34;;;;;;;7.10;2.90;;;;;;;24.42;30.92;101275.88;5040893;28;20186;-66
2022/05/26 09:54:21;;;;;;;4.30;2.60;;;;;;;23.78;31.85;101268.56;5039556;28;20412;-66
2022/05/26 09:56:46;;;;;;;7.13;3.07;;;;;;;24.13;31.80;101279.72;5040474;28;20416;-66
2022/05/26 09:59:32;;;;;;;4.23;2.50;;;;;;;23.31;33.26;101274.69;5040556;28;20432;-65
2022/05/26 10:02:02;;;;;;;4.93;3.10;;;;;;;22.13;35.30;101281.06;5040026;28;20174;-66
2022/05/26 10:04:53;;;;;;;4.17;2.87;;;;;;;22.17;34.92;101285.38;5039393;28;20667;-66
2022/05/26 10:07:57;;;;;;;4.53;2.90;;;;;;;22.38;34.86;101280.38;5040034;28;20437;-66
2022/05/26 10:10:34;;;;;;;3.50;3.00;;;;;;;22.48;34.64;101286.28;5039959;28;20419;-66
2022/05/26 10:13:21;;;;;;;5.43;2.90;;;;;;;22.22;35.71;101290.56;5022859;28;20416;-65
2022/05/26 10:16:10;;;;;;;4.10;3.10;;;;;;;23.24;33.63;101295.31;5039595;28;20431;-66
2022/05/26 10:18:41;;;;;;;5.23;2.90;;;;;;;21.83;35.65;101293.47;5039237;28;20520;-65
2022/05/26 10:21:16;;;;;;;3.00;2.70;;;;;;;22.14;35.76;101295.25;5039824;28;20409;-65
2022/05/26 10:24:00;;;;;;;4.07;2.83;;;;;;;21.94;36.01;101299.34;5038850;28;20559;-65
2022/05/26 10:26:44;;;;;;;7.60;3.03;;;;;;;20.91;37.65;101302.06;5039685;28;20505;-65
2022/05/26 10:29:22;;;;;;;5.47;2.80;;;;;;;21.07;37.90;101310.50;5038956;28;20476;-65
2022/05/26 10:31:58;;;;;;;4.27;2.90;;;;;;;21.53;37.25;101296.09;5039695;28;20416;-66
2022/05/26 10:34:51;;;;;;;3.80;2.70;;;;;;;21.62;37.15;101309.09;5038997;28;20416;-65
2022/05/26 10:37:34;;;;;;;4.53;2.50;;;;;;;20.40;38.83;101301.44;5039678;28;20456;-65
2022/05/26 10:40:26;;;;;;;4.27;3.20;;;;;;;20.36;39.03;101307.69;5038955;28;20421;-65
2022/05/26 10:43:06;;;;;;;4.53;3.10;;;;;;;20.33;39.21;101305.13;5038534;28;20474;-66
2022/05/26 10:45:39;;;;;;;4.90;3.20;;;;;;;20.30;39.61;101307.84;5038841;28;20716;-65
2022/05/26 10:48:28;;;;;;;3.80;2.80;;;;;;;19.56;40.74;101301.38;5038622;28;20836;-64
2022/05/26 10:51:12;;;;;;;7.27;4.10;;;;;;;21.37;37.58;101307.06;5038811;28;20413;-66
2022/05/26 10:53:51;;;;;;;4.43;3.00;;;;;;;22.30;35.70;101300.94;5039197;28;20412;-65
2022/05/26 10:56:31;;;;;;;3.17;2.80;;;;;;;22.93;34.94;101292.81;5038470;28;20666;-65
2022/05/26 10:59:24;;;;;;;4.83;3.07;;;;;;;22.01;36.67;101308.88;5038991;28;20420;-65
2022/05/26 11:01:58;;;;;;;6.17;3.00;;;;;;;22.07;36.14;101299.88;5038992;28;20424;-65
2022/05/26 11:04:47;;;;;;;6.73;3.20;;;;;;;22.75;35.45;101312.88;5038310;28;20416;-65
2022/05/26 11:07:22;;;;;;;5.47;2.70;;;;;;;22.70;34.71;101292.66;5038894;28;20444;-65
2022/05/26 11:09:59;;;;;;;3.80;3.03;;;;;;;21.75;36.04;101303.44;5039070;28;20428;-65
2022/05/26 11:12:48;;;;;;;4.63;3.00;;;;;;;20.89;37.30;101319.78;5038158;28;20697;-66
2022/05/26 11:18:18;;;;;;;3.80;2.80;;;;;;;20.84;38.14;101318.09;5038400;28;20424;-66
2022/05/26 11:20:53;;;;;;;4.10;2.70;;;;;;;20.05;39.20;101324.22;5038703;28;20448;-65
2022/05/26 11:23:20;;;;;;;4.30;2.70;;;;;;;19.88;37.47;101321.94;5037760;28;20464;-65
2022/05/26 11:25:56;;;;;;;4.63;2.90;;;;;;;21.56;35.15;101306.59;5037864;28;20415;-65
2022/05/26 11:28:30;;;;;;;5.23;2.63;;;;;;;22.68;34.07;101312.22;5021185;28;20741;-64
2022/05/26 11:37:15;;;;;;;3.77;3.20;;;;;;;21.63;35.79;101310.81;5037718;28;20439;-66
2022/05/26 11:39:42;;;;;;;3.20;2.87;;;;;;;20.92;37.19;101322.34;5037872;28;20417;-65
2022/05/26 11:42:10;;;;;;;6.97;3.03;;;;;;;19.70;39.16;101328.44;5037923;28;20417;-65
2022/05/26 11:44:38;;;;;;;4.50;2.70;;;;;;;19.72;39.19;101331.91;5038366;28;20420;-65
2022/05/26 11:47:12;;;;;;;3.80;2.90;;;;;;;19.37;40.37;101332.56;5038521;28;20652;-65
2022/05/26 11:49:43;;;;;;;5.43;2.97;;;;;;;19.33;40.23;101332.59;5038196;28;20419;-66
2022/05/26 11:52:38;;;;;;;5.37;3.37;;;;;;;19.38;40.58;101329.88;5038037;28;20876;-65
2022/05/26 11:55:33;;;;;;;5.30;3.17;;;;;;;18.99;42.08;101337.59;5037909;28;20427;-65
2022/05/26 11:58:16;;;;;;;3.73;3.07;;;;;;;19.22;41.80;101331.06;5038312;28;20413;-64
2022/05/26 12:00:44;;;;;;;4.50;3.10;;;;;;;19.33;42.28;101337.03;5037774;28;20447;-65
2022/05/26 12:03:30;;;;;;;4.50;3.10;;;;;;;19.42;42.06;101333.38;5037804;28;20484;-66
2022/05/26 12:05:57;;;;;;;4.20;3.17;;;;;;;19.42;42.11;101334.22;5037232;28;20409;-65
2022/05/26 12:08:31;;;;;;;6.90;3.53;;;;;;;19.51;42.83;101327.88;5037970;28;20413;-66
2022/05/26 12:11:00;;;;;;;3.03;2.70;;;;;;;19.37;42.80;101335.22;5037791;28;20416;-65
2022/05/26 12:13:27;;;;;;;5.33;3.27;;;;;;;19.64;42.79;101333.84;5037768;28;20711;-66
2022/05/26 12:16:14;;;;;;;4.13;3.00;;;;;;;19.21;43.73;101334.59;5037579;28;20443;-65